Terminal Aerodrome Forecast
Issued by NWS

Current Version | Previous Version | Text Only | Print | Product List | Glossary On
Versions: 1 2 3 4 5 6 7 8 9 10 11 12 13 14 15 16 17 18 19 20 21
640
FTUS41 KGYX 032323
TAFPSM
TAF
KPSM 032323Z 0400/0424 31011G18KT P6SM SCT050
     FM040300 31009KT P6SM FEW060
     FM041500 31011G18KT P6SM SKC=

USA.gov is the U.S. government's official web portal to all federal, state and local government web resources and services.